sensor_id;sensor_type;location;lat;lon;timestamp;temperature;humidity
35027;DHT22;60696;51.426;6.934;2022-12-24T00:00:58;10.70;99.90
35027;DHT22;60696;51.426;6.934;2022-12-24T00:03:24;10.70;99.90
35027;DHT22;60696;51.426;6.934;2022-12-24T00:05:50;10.80;99.90
35027;DHT22;60696;51.426;6.934;2022-12-24T00:08:15;10.70;99.90
35027;DHT22;60696;51.426;6.934;2022-12-24T00:10:41;10.70;99.90
35027;DHT22;60696;51.426;6.934;2022-12-24T00:13:06;10.70;99.90
35027;DHT22;60696;51.426;6.934;2022-12-24T00:15:32;10.70;99.90
35027;DHT22;60696;51.426;6.934;2022-12-24T00:17:57;10.70;99.90
35027;DHT22;60696;51.426;6.934;2022-12-24T00:20:23;10.60;99.90
35027;DHT22;60696;51.426;6.934;2022-12-24T00:22:49;10.60;99.90
35027;DHT22;60696;51.426;6.934;2022-12-24T00:25:14;10.60;99.90
35027;DHT22;60696;51.426;6.934;2022-12-24T00:27:40;10.60;99.90
35027;DHT22;60696;51.426;6.934;2022-12-24T00:30:06;10.70;99.90
35027;DHT22;60696;51.426;6.934;2022-12-24T00:32:32;10.70;99.90
35027;DHT22;60696;51.426;6.934;2022-12-24T00:34:57;10.60;99.90
35027;DHT22;60696;51.426;6.934;2022-12-24T00:37:23;10.60;99.90
35027;DHT22;60696;51.426;6.934;2022-12-24T00:39:48;10.60;99.90
35027;DHT22;60696;51.426;6.934;2022-12-24T00:42:14;10.60;99.90
35027;DHT22;60696;51.426;6.934;2022-12-24T00:44:39;10.60;99.90
35027;DHT22;60696;51.426;6.934;2022-12-24T00:47:05;10.60;99.90
35027;DHT22;60696;51.426;6.934;2022-12-24T00:49:31;10.50;99.90
35027;DHT22;60696;51.426;6.934;2022-12-24T00:51:56;10.50;99.90
35027;DHT22;60696;51.426;6.934;2022-12-24T00:54:22;10.50;99.90
35027;DHT22;60696;51.426;6.934;2022-12-24T00:56:47;10.50;99.90
35027;DHT22;60696;51.426;6.934;2022-12-24T00:59:13;10.50;99.90
35027;DHT22;60696;51.426;6.934;2022-12-24T01:01:39;10.40;99.90
35027;DHT22;60696;51.426;6.934;2022-12-24T01:04:04;10.50;99.90
35027;DHT22;60696;51.426;6.934;2022-12-24T01:06:49;10.40;99.90
35027;DHT22;60696;51.426;6.934;2022-12-24T01:09:14;10.40;99.90
35027;DHT22;60696;51.426;6.934;2022-12-24T01:11:40;10.30;99.90
35027;DHT22;60696;51.426;6.934;2022-12-24T01:14:05;10.20;99.90
35027;DHT22;60696;51.426;6.934;2022-12-24T01:16:31;10.10;99.90
35027;DHT22;60696;51.426;6.934;2022-12-24T01:18:56;10.00;99.90
35027;DHT22;60696;51.426;6.934;2022-12-24T01:21:22;10.00;99.90
35027;DHT22;60696;51.426;6.934;2022-12-24T01:23:48;10.00;99.90
35027;DHT22;60696;51.426;6.934;2022-12-24T01:26:13;10.00;99.90
35027;DHT22;60696;51.426;6.934;2022-12-24T01:28:39;10.00;99.90
35027;DHT22;60696;51.426;6.934;2022-12-24T01:31:13;10.00;99.90
35027;DHT22;60696;51.426;6.934;2022-12-24T01:33:39;10.10;99.90
35027;DHT22;60696;51.426;6.934;2022-12-24T01:36:05;10.10;99.90
35027;DHT22;60696;51.426;6.934;2022-12-24T01:38:31;10.10;99.90
35027;DHT22;60696;51.426;6.934;2022-12-24T01:40:56;10.10;99.90
35027;DHT22;60696;51.426;6.934;2022-12-24T01:43:40;10.10;99.90
35027;DHT22;60696;51.426;6.934;2022-12-24T01:46:06;10.00;99.90
35027;DHT22;60696;51.426;6.934;2022-12-24T01:49:01;10.00;99.90
35027;DHT22;60696;51.426;6.934;2022-12-24T01:51:40;10.00;99.90
35027;DHT22;60696;51.426;6.934;2022-12-24T01:54:17;9.90;99.90
35027;DHT22;60696;51.426;6.934;2022-12-24T01:56:46;9.90;99.90
35027;DHT22;60696;51.426;6.934;2022-12-24T01:59:14;9.80;99.90
35027;DHT22;60696;51.426;6.934;2022-12-24T02:01:41;9.80;99.90
35027;DHT22;60696;51.426;6.934;2022-12-24T02:04:27;9.90;99.90
35027;DHT22;60696;51.426;6.934;2022-12-24T02:06:54;9.80;99.90
35027;DHT22;60696;51.426;6.934;2022-12-24T02:09:20;9.90;99.90
35027;DHT22;60696;51.426;6.934;2022-12-24T02:11:46;9.90;99.90
35027;DHT22;60696;51.426;6.934;2022-12-24T02:14:12;9.80;99.90
35027;DHT22;60696;51.426;6.934;2022-12-24T02:21:56;9.60;99.90
35027;DHT22;60696;51.426;6.934;2022-12-24T02:24:33;9.70;99.90
35027;DHT22;60696;51.426;6.934;2022-12-24T02:35:39;9.70;99.90
35027;DHT22;60696;51.426;6.934;2022-12-24T02:38:15;9.60;99.90
35027;DHT22;60696;51.426;6.934;2022-12-24T02:40:57;9.60;99.90
35027;DHT22;60696;51.426;6.934;2022-12-24T02:43:28;9.50;99.90
35027;DHT22;60696;51.426;6.934;2022-12-24T02:45:58;9.50;99.90
35027;DHT22;60696;51.426;6.934;2022-12-24T02:48:27;9.50;99.90
35027;DHT22;60696;51.426;6.934;2022-12-24T02:51:06;9.50;99.90
35027;DHT22;60696;51.426;6.934;2022-12-24T02:53:32;9.50;99.90
35027;DHT22;60696;51.426;6.934;2022-12-24T03:04:22;9.50;99.90
35027;DHT22;60696;51.426;6.934;2022-12-24T03:10:07;9.40;99.90
35027;DHT22;60696;51.426;6.934;2022-12-24T03:12:46;9.40;99.90
35027;DHT22;60696;51.426;6.934;2022-12-24T03:15:14;9.50;99.90
35027;DHT22;60696;51.426;6.934;2022-12-24T03:17:42;9.40;99.90
35027;DHT22;60696;51.426;6.934;2022-12-24T03:20:11;9.40;99.90
35027;DHT22;60696;51.426;6.934;2022-12-24T03:22:38;9.50;99.90
35027;DHT22;60696;51.426;6.934;2022-12-24T03:25:04;9.40;99.90
35027;DHT22;60696;51.426;6.934;2022-12-24T03:27:31;9.40;99.90
35027;DHT22;60696;51.426;6.934;2022-12-24T03:29:58;9.40;99.90
35027;DHT22;60696;51.426;6.934;2022-12-24T03:32:28;9.40;99.90
35027;DHT22;60696;51.426;6.934;2022-12-24T03:34:54;9.40;99.90
35027;DHT22;60696;51.426;6.934;2022-12-24T03:37:20;9.40;99.90
35027;DHT22;60696;51.426;6.934;2022-12-24T03:39:46;9.40;99.90
35027;DHT22;60696;51.426;6.934;2022-12-24T03:42:11;9.40;99.90
35027;DHT22;60696;51.426;6.934;2022-12-24T03:44:37;9.50;99.90
35027;DHT22;60696;51.426;6.934;2022-12-24T03:47:03;9.50;99.90
35027;DHT22;60696;51.426;6.934;2022-12-24T03:49:28;9.60;99.90
35027;DHT22;60696;51.426;6.934;2022-12-24T03:51:54;9.60;99.90
35027;DHT22;60696;51.426;6.934;2022-12-24T03:54:19;9.60;99.90
35027;DHT22;60696;51.426;6.934;2022-12-24T03:56:45;9.60;99.90
35027;DHT22;60696;51.426;6.934;2022-12-24T03:59:10;9.60;99.90
35027;DHT22;60696;51.426;6.934;2022-12-24T04:01:36;9.60;99.90
35027;DHT22;60696;51.426;6.934;2022-12-24T04:04:02;9.70;99.90
35027;DHT22;60696;51.426;6.934;2022-12-24T04:06:27;9.70;99.90
35027;DHT22;60696;51.426;6.934;2022-12-24T04:08:53;9.70;99.90
35027;DHT22;60696;51.426;6.934;2022-12-24T04:11:19;9.70;99.90
35027;DHT22;60696;51.426;6.934;2022-12-24T04:13:44;9.60;99.90
35027;DHT22;60696;51.426;6.934;2022-12-24T04:16:12;9.60;99.90
35027;DHT22;60696;51.426;6.934;2022-12-24T04:18:38;9.60;99.90
35027;DHT22;60696;51.426;6.934;2022-12-24T04:21:05;9.60;99.90
35027;DHT22;60696;51.426;6.934;2022-12-24T04:23:35;9.60;99.90
35027;DHT22;60696;51.426;6.934;2022-12-24T04:26:02;9.70;99.90
35027;DHT22;60696;51.426;6.934;2022-12-24T04:28:29;9.70;99.90
35027;DHT22;60696;51.426;6.934;2022-12-24T04:31:03;9.80;99.90
35027;DHT22;60696;51.426;6.934;2022-12-24T04:33:29;9.80;99.90
35027;DHT22;60696;51.426;6.934;2022-12-24T04:35:58;9.80;99.90
35027;DHT22;60696;51.426;6.934;2022-12-24T04:38:24;9.90;99.90
35027;DHT22;60696;51.426;6.934;2022-12-24T04:41:17;9.90;99.90
35027;DHT22;60696;51.426;6.934;2022-12-24T04:43:43;9.90;99.90
35027;DHT22;60696;51.426;6.934;2022-12-24T04:46:14;10.00;99.90
35027;DHT22;60696;51.426;6.934;2022-12-24T04:48:42;10.00;99.90
35027;DHT22;60696;51.426;6.934;2022-12-24T04:51:08;10.00;99.90
35027;DHT22;60696;51.426;6.934;2022-12-24T04:53:35;10.00;99.90
35027;DHT22;60696;51.426;6.934;2022-12-24T04:56:01;10.00;99.90
35027;DHT22;60696;51.426;6.934;2022-12-24T04:58:27;10.00;99.90
35027;DHT22;60696;51.426;6.934;2022-12-24T05:00:53;10.10;99.90
35027;DHT22;60696;51.426;6.934;2022-12-24T05:03:18;10.00;99.90
35027;DHT22;60696;51.426;6.934;2022-12-24T05:05:44;10.10;99.90
35027;DHT22;60696;51.426;6.934;2022-12-24T05:08:10;10.10;99.90
35027;DHT22;60696;51.426;6.934;2022-12-24T05:10:35;10.10;99.90
35027;DHT22;60696;51.426;6.934;2022-12-24T05:13:01;10.10;99.90
35027;DHT22;60696;51.426;6.934;2022-12-24T05:15:27;10.10;99.90
35027;DHT22;60696;51.426;6.934;2022-12-24T05:17:53;10.10;99.90
35027;DHT22;60696;51.426;6.934;2022-12-24T05:20:19;10.10;99.90
35027;DHT22;60696;51.426;6.934;2022-12-24T05:22:44;10.10;99.90
35027;DHT22;60696;51.426;6.934;2022-12-24T05:25:38;10.10;99.90
35027;DHT22;60696;51.426;6.934;2022-12-24T05:28:23;10.00;99.90
35027;DHT22;60696;51.426;6.934;2022-12-24T05:30:49;10.10;99.90
35027;DHT22;60696;51.426;6.934;2022-12-24T05:33:14;10.00;99.90
35027;DHT22;60696;51.426;6.934;2022-12-24T05:35:40;10.00;99.90
35027;DHT22;60696;51.426;6.934;2022-12-24T05:38:05;10.00;99.90
35027;DHT22;60696;51.426;6.934;2022-12-24T05:40:31;10.00;99.90
35027;DHT22;60696;51.426;6.934;2022-12-24T05:42:57;10.00;99.90
35027;DHT22;60696;51.426;6.934;2022-12-24T05:45:22;10.00;99.90
35027;DHT22;60696;51.426;6.934;2022-12-24T05:47:48;10.00;99.90
35027;DHT22;60696;51.426;6.934;2022-12-24T05:50:13;9.90;99.90
35027;DHT22;60696;51.426;6.934;2022-12-24T05:52:39;9.90;99.90
35027;DHT22;60696;51.426;6.934;2022-12-24T05:55:05;10.00;99.90
35027;DHT22;60696;51.426;6.934;2022-12-24T05:57:31;9.90;99.90
35027;DHT22;60696;51.426;6.934;2022-12-24T05:59:56;10.00;99.90
35027;DHT22;60696;51.426;6.934;2022-12-24T06:02:24;10.00;99.90
35027;DHT22;60696;51.426;6.934;2022-12-24T06:04:50;10.00;99.90
35027;DHT22;60696;51.426;6.934;2022-12-24T06:07:16;10.00;99.90
35027;DHT22;60696;51.426;6.934;2022-12-24T06:09:41;10.00;99.90
35027;DHT22;60696;51.426;6.934;2022-12-24T06:12:07;9.90;99.90
35027;DHT22;60696;51.426;6.934;2022-12-24T06:14:32;10.00;99.90
35027;DHT22;60696;51.426;6.934;2022-12-24T06:16:58;10.00;99.90
35027;DHT22;60696;51.426;6.934;2022-12-24T06:19:23;10.00;99.90
35027;DHT22;60696;51.426;6.934;2022-12-24T06:21:49;9.90;99.90
35027;DHT22;60696;51.426;6.934;2022-12-24T06:24:14;10.00;99.90
35027;DHT22;60696;51.426;6.934;2022-12-24T06:26:40;10.00;99.90
35027;DHT22;60696;51.426;6.934;2022-12-24T06:29:06;10.00;99.90
35027;DHT22;60696;51.426;6.934;2022-12-24T06:31:31;10.00;99.90
35027;DHT22;60696;51.426;6.934;2022-12-24T06:33:57;10.00;99.90
35027;DHT22;60696;51.426;6.934;2022-12-24T06:36:23;10.00;99.90
35027;DHT22;60696;51.426;6.934;2022-12-24T06:38:50;10.00;99.90
35027;DHT22;60696;51.426;6.934;2022-12-24T06:41:17;10.00;99.90
35027;DHT22;60696;51.426;6.934;2022-12-24T06:43:47;10.00;99.90
35027;DHT22;60696;51.426;6.934;2022-12-24T06:46:14;10.00;99.90
35027;DHT22;60696;51.426;6.934;2022-12-24T06:48:40;10.00;99.90
35027;DHT22;60696;51.426;6.934;2022-12-24T06:51:06;9.90;99.90
35027;DHT22;60696;51.426;6.934;2022-12-24T06:53:32;10.00;99.90
35027;DHT22;60696;51.426;6.934;2022-12-24T06:56:05;9.90;99.90
35027;DHT22;60696;51.426;6.934;2022-12-24T06:58:32;9.90;99.90
35027;DHT22;60696;51.426;6.934;2022-12-24T07:01:05;9.90;99.90
35027;DHT22;60696;51.426;6.934;2022-12-24T07:03:31;9.90;99.90
35027;DHT22;60696;51.426;6.934;2022-12-24T07:05:58;9.90;99.90
35027;DHT22;60696;51.426;6.934;2022-12-24T07:08:23;9.90;99.90
35027;DHT22;60696;51.426;6.934;2022-12-24T07:10:50;9.90;99.90
35027;DHT22;60696;51.426;6.934;2022-12-24T07:13:16;9.90;99.90
35027;DHT22;60696;51.426;6.934;2022-12-24T07:15:42;10.00;99.90
35027;DHT22;60696;51.426;6.934;2022-12-24T07:18:08;10.00;99.90
35027;DHT22;60696;51.426;6.934;2022-12-24T07:20:34;10.00;99.90
35027;DHT22;60696;51.426;6.934;2022-12-24T07:23:00;10.00;99.90
35027;DHT22;60696;51.426;6.934;2022-12-24T07:25:25;10.00;99.90
35027;DHT22;60696;51.426;6.934;2022-12-24T07:27:51;10.00;99.90
35027;DHT22;60696;51.426;6.934;2022-12-24T07:30:16;10.00;99.90
35027;DHT22;60696;51.426;6.934;2022-12-24T07:32:42;10.00;99.90
35027;DHT22;60696;51.426;6.934;2022-12-24T07:35:08;9.90;99.90
35027;DHT22;60696;51.426;6.934;2022-12-24T07:37:34;9.80;99.90
35027;DHT22;60696;51.426;6.934;2022-12-24T07:40:00;9.90;99.90
35027;DHT22;60696;51.426;6.934;2022-12-24T07:42:26;9.90;99.90
35027;DHT22;60696;51.426;6.934;2022-12-24T07:44:51;9.90;99.90
35027;DHT22;60696;51.426;6.934;2022-12-24T07:47:17;9.90;99.90
35027;DHT22;60696;51.426;6.934;2022-12-24T07:49:42;9.90;99.90
35027;DHT22;60696;51.426;6.934;2022-12-24T07:52:08;9.90;99.90
35027;DHT22;60696;51.426;6.934;2022-12-24T07:54:34;9.80;99.90
35027;DHT22;60696;51.426;6.934;2022-12-24T07:56:59;9.80;99.90
35027;DHT22;60696;51.426;6.934;2022-12-24T07:59:25;9.80;99.90
35027;DHT22;60696;51.426;6.934;2022-12-24T08:01:51;9.80;99.90
35027;DHT22;60696;51.426;6.934;2022-12-24T08:04:16;9.80;99.90
35027;DHT22;60696;51.426;6.934;2022-12-24T08:06:42;9.80;99.90
35027;DHT22;60696;51.426;6.934;2022-12-24T08:09:07;9.80;99.90
35027;DHT22;60696;51.426;6.934;2022-12-24T08:11:33;9.80;99.90
35027;DHT22;60696;51.426;6.934;2022-12-24T08:13:59;9.80;99.90
35027;DHT22;60696;51.426;6.934;2022-12-24T08:16:24;9.80;99.90
35027;DHT22;60696;51.426;6.934;2022-12-24T08:18:50;9.80;99.90
35027;DHT22;60696;51.426;6.934;2022-12-24T08:21:15;9.80;99.90
35027;DHT22;60696;51.426;6.934;2022-12-24T08:23:41;9.80;99.90
35027;DHT22;60696;51.426;6.934;2022-12-24T08:26:08;9.80;99.90
35027;DHT22;60696;51.426;6.934;2022-12-24T08:28:34;9.80;99.90
35027;DHT22;60696;51.426;6.934;2022-12-24T08:31:00;9.80;99.90
35027;DHT22;60696;51.426;6.934;2022-12-24T08:33:25;9.80;99.90
35027;DHT22;60696;51.426;6.934;2022-12-24T08:35:53;9.80;99.90
35027;DHT22;60696;51.426;6.934;2022-12-24T08:38:22;9.80;99.90
35027;DHT22;60696;51.426;6.934;2022-12-24T08:40:48;9.90;99.90
35027;DHT22;60696;51.426;6.934;2022-12-24T08:43:18;9.90;99.90
35027;DHT22;60696;51.426;6.934;2022-12-24T08:45:44;9.90;99.90
35027;DHT22;60696;51.426;6.934;2022-12-24T08:48:10;9.90;99.90
35027;DHT22;60696;51.426;6.934;2022-12-24T08:50:39;9.90;99.90
35027;DHT22;60696;51.426;6.934;2022-12-24T08:53:06;10.00;99.90
35027;DHT22;60696;51.426;6.934;2022-12-24T08:55:32;10.00;99.90
35027;DHT22;60696;51.426;6.934;2022-12-24T08:57:58;9.90;99.90
35027;DHT22;60696;51.426;6.934;2022-12-24T09:00:23;10.00;99.90
35027;DHT22;60696;51.426;6.934;2022-12-24T09:02:49;10.00;99.90
35027;DHT22;60696;51.426;6.934;2022-12-24T09:05:15;10.00;99.90
35027;DHT22;60696;51.426;6.934;2022-12-24T09:07:40;10.00;99.90
35027;DHT22;60696;51.426;6.934;2022-12-24T09:10:06;10.00;99.90
35027;DHT22;60696;51.426;6.934;2022-12-24T09:12:32;10.10;99.90
35027;DHT22;60696;51.426;6.934;2022-12-24T09:14:58;10.10;99.90
35027;DHT22;60696;51.426;6.934;2022-12-24T09:17:24;10.30;99.90
35027;DHT22;60696;51.426;6.934;2022-12-24T09:19:49;10.60;99.90
35027;DHT22;60696;51.426;6.934;2022-12-24T09:22:15;10.80;99.90
35027;DHT22;60696;51.426;6.934;2022-12-24T09:24:41;10.90;99.90
35027;DHT22;60696;51.426;6.934;2022-12-24T09:27:06;10.90;99.90
35027;DHT22;60696;51.426;6.934;2022-12-24T09:29:32;10.90;99.90
35027;DHT22;60696;51.426;6.934;2022-12-24T09:31:57;10.70;99.90
35027;DHT22;60696;51.426;6.934;2022-12-24T09:34:24;10.60;99.90
35027;DHT22;60696;51.426;6.934;2022-12-24T09:36:50;10.60;99.90
35027;DHT22;60696;51.426;6.934;2022-12-24T09:39:19;10.70;99.90
35027;DHT22;60696;51.426;6.934;2022-12-24T09:44:37;10.80;99.90
35027;DHT22;60696;51.426;6.934;2022-12-24T09:49:51;10.90;99.90
35027;DHT22;60696;51.426;6.934;2022-12-24T09:52:35;10.90;99.90
35027;DHT22;60696;51.426;6.934;2022-12-24T09:57:35;10.80;99.90
35027;DHT22;60696;51.426;6.934;2022-12-24T10:00:03;11.00;99.90
35027;DHT22;60696;51.426;6.934;2022-12-24T10:02:31;11.10;99.90
35027;DHT22;60696;51.426;6.934;2022-12-24T10:04:56;11.20;99.90
35027;DHT22;60696;51.426;6.934;2022-12-24T10:10:36;11.10;99.90
35027;DHT22;60696;51.426;6.934;2022-12-24T10:13:17;11.00;99.90
35027;DHT22;60696;51.426;6.934;2022-12-24T10:18:40;10.80;99.90
35027;DHT22;60696;51.426;6.934;2022-12-24T10:21:14;10.90;99.90
35027;DHT22;60696;51.426;6.934;2022-12-24T10:26:29;11.00;99.90
35027;DHT22;60696;51.426;6.934;2022-12-24T10:29:17;11.10;99.90
35027;DHT22;60696;51.426;6.934;2022-12-24T10:34:45;11.10;99.90
35027;DHT22;60696;51.426;6.934;2022-12-24T10:37:16;11.10;99.90
35027;DHT22;60696;51.426;6.934;2022-12-24T10:39:43;11.10;99.90
35027;DHT22;60696;51.426;6.934;2022-12-24T10:42:10;11.20;99.90
35027;DHT22;60696;51.426;6.934;2022-12-24T10:44:37;11.10;99.90
35027;DHT22;60696;51.426;6.934;2022-12-24T10:47:06;11.30;99.90
35027;DHT22;60696;51.426;6.934;2022-12-24T10:49:47;11.20;99.90
35027;DHT22;60696;51.426;6.934;2022-12-24T10:52:17;11.40;99.90
35027;DHT22;60696;51.426;6.934;2022-12-24T10:57:40;11.40;99.90
35027;DHT22;60696;51.426;6.934;2022-12-24T11:00:21;11.40;99.90
35027;DHT22;60696;51.426;6.934;2022-12-24T11:02:48;11.40;99.90
35027;DHT22;60696;51.426;6.934;2022-12-24T11:05:30;11.50;99.90
35027;DHT22;60696;51.426;6.934;2022-12-24T11:08:13;11.60;99.90
35027;DHT22;60696;51.426;6.934;2022-12-24T11:10:41;11.70;99.90
35027;DHT22;60696;51.426;6.934;2022-12-24T11:13:32;11.60;99.90
35027;DHT22;60696;51.426;6.934;2022-12-24T11:18:32;11.60;99.90
35027;DHT22;60696;51.426;6.934;2022-12-24T11:20:59;11.50;99.90
35027;DHT22;60696;51.426;6.934;2022-12-24T11:23:26;11.40;99.90
35027;DHT22;60696;51.426;6.934;2022-12-24T11:25:54;11.30;99.90
35027;DHT22;60696;51.426;6.934;2022-12-24T11:28:23;11.30;99.90
35027;DHT22;60696;51.426;6.934;2022-12-24T11:31:27;11.30;99.90
35027;DHT22;60696;51.426;6.934;2022-12-24T11:33:53;11.20;99.90
35027;DHT22;60696;51.426;6.934;2022-12-24T11:36:22;11.30;99.90
35027;DHT22;60696;51.426;6.934;2022-12-24T11:38:55;11.20;99.90
35027;DHT22;60696;51.426;6.934;2022-12-24T11:41:22;11.10;99.90
35027;DHT22;60696;51.426;6.934;2022-12-24T11:44:01;11.10;99.90
35027;DHT22;60696;51.426;6.934;2022-12-24T11:46:43;11.00;99.90
35027;DHT22;60696;51.426;6.934;2022-12-24T11:51:37;11.20;99.90
35027;DHT22;60696;51.426;6.934;2022-12-24T11:54:18;11.30;99.90
35027;DHT22;60696;51.426;6.934;2022-12-24T11:56:50;11.30;99.90
35027;DHT22;60696;51.426;6.934;2022-12-24T11:59:30;11.30;99.90
35027;DHT22;60696;51.426;6.934;2022-12-24T12:02:22;11.30;99.90
35027;DHT22;60696;51.426;6.934;2022-12-24T12:05:02;11.30;99.90
35027;DHT22;60696;51.426;6.934;2022-12-24T12:07:34;11.30;99.90
35027;DHT22;60696;51.426;6.934;2022-12-24T12:10:10;11.30;99.90
35027;DHT22;60696;51.426;6.934;2022-12-24T12:12:45;11.40;99.90
35027;DHT22;60696;51.426;6.934;2022-12-24T12:15:27;11.40;99.90
35027;DHT22;60696;51.426;6.934;2022-12-24T12:18:17;11.40;99.90
35027;DHT22;60696;51.426;6.934;2022-12-24T12:21:00;11.40;99.90
35027;DHT22;60696;51.426;6.934;2022-12-24T12:23:48;11.40;99.90
35027;DHT22;60696;51.426;6.934;2022-12-24T12:26:26;11.40;99.90
35027;DHT22;60696;51.426;6.934;2022-12-24T12:29:46;11.40;99.90
35027;DHT22;60696;51.426;6.934;2022-12-24T12:31:56;11.50;99.90
35027;DHT22;60696;51.426;6.934;2022-12-24T12:34:38;11.60;99.90
35027;DHT22;60696;51.426;6.934;2022-12-24T12:37:53;11.60;99.90
35027;DHT22;60696;51.426;6.934;2022-12-24T12:40:13;11.50;99.90
35027;DHT22;60696;51.426;6.934;2022-12-24T12:42:40;11.50;99.90
35027;DHT22;60696;51.426;6.934;2022-12-24T12:50:43;11.20;99.90
35027;DHT22;60696;51.426;6.934;2022-12-24T12:58:32;11.50;99.90
35027;DHT22;60696;51.426;6.934;2022-12-24T13:01:24;11.50;99.90
35027;DHT22;60696;51.426;6.934;2022-12-24T13:20:23;11.50;99.90
35027;DHT22;60696;51.426;6.934;2022-12-24T13:22:57;11.70;99.90
35027;DHT22;60696;51.426;6.934;2022-12-24T13:25:39;12.10;99.90
35027;DHT22;60696;51.426;6.934;2022-12-24T13:36:14;12.00;99.90
35027;DHT22;60696;51.426;6.934;2022-12-24T13:38:53;12.10;99.90
35027;DHT22;60696;51.426;6.934;2022-12-24T13:49:40;12.40;99.90
35027;DHT22;60696;51.426;6.934;2022-12-24T13:54:41;12.50;99.90
35027;DHT22;60696;51.426;6.934;2022-12-24T14:02:37;12.60;99.90
35027;DHT22;60696;51.426;6.934;2022-12-24T14:05:07;12.50;99.90
35027;DHT22;60696;51.426;6.934;2022-12-24T14:07:46;12.40;99.90
35027;DHT22;60696;51.426;6.934;2022-12-24T14:10:22;12.30;99.90
35027;DHT22;60696;51.426;6.934;2022-12-24T14:12:52;12.20;99.90
35027;DHT22;60696;51.426;6.934;2022-12-24T14:15:45;12.30;99.90
35027;DHT22;60696;51.426;6.934;2022-12-24T14:18:23;12.20;99.90
35027;DHT22;60696;51.426;6.934;2022-12-24T14:20:50;12.10;99.90
35027;DHT22;60696;51.426;6.934;2022-12-24T14:26:00;11.80;99.90
35027;DHT22;60696;51.426;6.934;2022-12-24T14:28:44;11.70;99.90
35027;DHT22;60696;51.426;6.934;2022-12-24T14:31:16;11.60;99.90
35027;DHT22;60696;51.426;6.934;2022-12-24T14:33:42;11.50;99.90
35027;DHT22;60696;51.426;6.934;2022-12-24T14:36:08;11.40;99.90
35027;DHT22;60696;51.426;6.934;2022-12-24T14:38:34;11.50;99.90
35027;DHT22;60696;51.426;6.934;2022-12-24T14:41:24;11.50;99.90
35027;DHT22;60696;51.426;6.934;2022-12-24T14:46:57;11.40;99.90
35027;DHT22;60696;51.426;6.934;2022-12-24T14:52:37;11.10;99.90
35027;DHT22;60696;51.426;6.934;2022-12-24T14:55:30;11.00;99.90
35027;DHT22;60696;51.426;6.934;2022-12-24T14:58:31;10.90;99.90
35027;DHT22;60696;51.426;6.934;2022-12-24T15:00:59;10.70;99.90
35027;DHT22;60696;51.426;6.934;2022-12-24T15:03:28;10.70;99.90
35027;DHT22;60696;51.426;6.934;2022-12-24T15:05:58;10.50;99.90
35027;DHT22;60696;51.426;6.934;2022-12-24T15:08:35;10.40;99.90
35027;DHT22;60696;51.426;6.934;2022-12-24T15:11:04;10.40;99.90
35027;DHT22;60696;51.426;6.934;2022-12-24T15:13:43;10.20;99.90
35027;DHT22;60696;51.426;6.934;2022-12-24T15:16:12;10.10;99.90
35027;DHT22;60696;51.426;6.934;2022-12-24T15:18:42;10.10;99.90
35027;DHT22;60696;51.426;6.934;2022-12-24T15:21:19;10.00;99.90
35027;DHT22;60696;51.426;6.934;2022-12-24T15:23:49;9.90;99.90
35027;DHT22;60696;51.426;6.934;2022-12-24T15:26:26;9.80;99.90
35027;DHT22;60696;51.426;6.934;2022-12-24T15:28:53;9.70;99.90
35027;DHT22;60696;51.426;6.934;2022-12-24T15:31:21;9.70;99.90
35027;DHT22;60696;51.426;6.934;2022-12-24T15:33:49;9.60;99.90
35027;DHT22;60696;51.426;6.934;2022-12-24T15:36:22;9.60;99.90
35027;DHT22;60696;51.426;6.934;2022-12-24T15:38:52;9.70;99.90
35027;DHT22;60696;51.426;6.934;2022-12-24T15:41:20;9.70;99.90
35027;DHT22;60696;51.426;6.934;2022-12-24T15:43:48;9.70;99.90
35027;DHT22;60696;51.426;6.934;2022-12-24T15:46:24;9.70;99.90
35027;DHT22;60696;51.426;6.934;2022-12-24T15:48:52;9.70;99.90
35027;DHT22;60696;51.426;6.934;2022-12-24T15:51:36;9.60;99.90
35027;DHT22;60696;51.426;6.934;2022-12-24T15:54:11;9.50;99.90
35027;DHT22;60696;51.426;6.934;2022-12-24T15:56:40;9.40;99.90
35027;DHT22;60696;51.426;6.934;2022-12-24T16:01:43;9.30;99.90
35027;DHT22;60696;51.426;6.934;2022-12-24T16:04:14;9.20;99.90
35027;DHT22;60696;51.426;6.934;2022-12-24T16:06:59;9.20;99.90
35027;DHT22;60696;51.426;6.934;2022-12-24T16:12:00;9.10;99.90
35027;DHT22;60696;51.426;6.934;2022-12-24T16:14:26;9.10;99.90
35027;DHT22;60696;51.426;6.934;2022-12-24T16:16:51;9.00;99.90
35027;DHT22;60696;51.426;6.934;2022-12-24T16:19:24;9.00;99.90
35027;DHT22;60696;51.426;6.934;2022-12-24T16:21:54;8.90;99.90
35027;DHT22;60696;51.426;6.934;2022-12-24T16:24:23;8.90;99.90
35027;DHT22;60696;51.426;6.934;2022-12-24T16:26:50;8.90;99.90
35027;DHT22;60696;51.426;6.934;2022-12-24T16:29:16;8.90;99.90
35027;DHT22;60696;51.426;6.934;2022-12-24T16:31:54;8.80;99.90
35027;DHT22;60696;51.426;6.934;2022-12-24T16:34:26;8.80;99.90
35027;DHT22;60696;51.426;6.934;2022-12-24T16:36:52;8.70;99.90
35027;DHT22;60696;51.426;6.934;2022-12-24T16:39:21;8.70;99.90
35027;DHT22;60696;51.426;6.934;2022-12-24T16:41:53;8.60;99.90
35027;DHT22;60696;51.426;6.934;2022-12-24T16:44:38;8.60;99.90
35027;DHT22;60696;51.426;6.934;2022-12-24T16:47:25;8.60;99.90
35027;DHT22;60696;51.426;6.934;2022-12-24T16:49:52;8.50;99.90
35027;DHT22;60696;51.426;6.934;2022-12-24T16:52:20;8.50;99.90
35027;DHT22;60696;51.426;6.934;2022-12-24T16:54:49;8.50;99.90
35027;DHT22;60696;51.426;6.934;2022-12-24T16:57:15;8.60;99.90
35027;DHT22;60696;51.426;6.934;2022-12-24T16:59:41;8.60;99.90
35027;DHT22;60696;51.426;6.934;2022-12-24T17:02:08;8.50;99.90
35027;DHT22;60696;51.426;6.934;2022-12-24T17:04:34;8.50;99.90
35027;DHT22;60696;51.426;6.934;2022-12-24T17:07:00;8.50;99.90
35027;DHT22;60696;51.426;6.934;2022-12-24T17:09:25;8.50;99.90
35027;DHT22;60696;51.426;6.934;2022-12-24T17:11:51;8.50;99.90
35027;DHT22;60696;51.426;6.934;2022-12-24T17:14:16;8.50;99.90
35027;DHT22;60696;51.426;6.934;2022-12-24T17:16:42;8.50;99.90
35027;DHT22;60696;51.426;6.934;2022-12-24T17:19:08;8.50;99.90
35027;DHT22;60696;51.426;6.934;2022-12-24T17:21:34;8.50;99.90
35027;DHT22;60696;51.426;6.934;2022-12-24T17:24:00;8.50;99.90
35027;DHT22;60696;51.426;6.934;2022-12-24T17:26:26;8.50;99.90
35027;DHT22;60696;51.426;6.934;2022-12-24T17:28:53;8.50;99.90
35027;DHT22;60696;51.426;6.934;2022-12-24T17:31:19;8.40;99.90
35027;DHT22;60696;51.426;6.934;2022-12-24T17:33:47;8.50;99.90
35027;DHT22;60696;51.426;6.934;2022-12-24T17:36:13;8.40;99.90
35027;DHT22;60696;51.426;6.934;2022-12-24T17:38:38;8.40;99.90
35027;DHT22;60696;51.426;6.934;2022-12-24T17:41:10;8.40;99.90
35027;DHT22;60696;51.426;6.934;2022-12-24T17:43:36;8.50;99.90
35027;DHT22;60696;51.426;6.934;2022-12-24T17:46:06;8.50;99.90
35027;DHT22;60696;51.426;6.934;2022-12-24T17:48:32;8.40;99.90
35027;DHT22;60696;51.426;6.934;2022-12-24T17:51:05;8.50;99.90